createdAt,value
2023-05-05T00:01:33.377Z,7.87
2023-05-05T00:04:00.593Z,6.50
2023-05-05T00:06:31.392Z,6.90
2023-05-05T00:08:58.566Z,6.70
2023-05-05T00:11:26.111Z,6.13
2023-05-05T00:13:53.228Z,6.57
2023-05-05T00:16:20.500Z,6.60
2023-05-05T00:18:48.097Z,5.63
2023-05-05T00:21:15.729Z,6.53
2023-05-05T00:23:42.918Z,6.53
2023-05-05T00:26:09.993Z,7.13
2023-05-05T00:28:38.389Z,8.67
2023-05-05T00:31:05.711Z,6.43
2023-05-05T00:33:33.012Z,6.37
2023-05-05T00:36:00.152Z,5.67
2023-05-05T00:38:27.392Z,5.53
2023-05-05T00:40:54.602Z,5.57
2023-05-05T00:43:21.755Z,5.17
2023-05-05T00:46:02.027Z,6.53
2023-05-05T00:48:32.717Z,4.73
2023-05-05T00:51:00.222Z,6.30
2023-05-05T00:53:27.700Z,5.03
2023-05-05T00:55:55.022Z,4.53
2023-05-05T00:58:22.189Z,5.10
2023-05-05T01:00:49.311Z,5.60
2023-05-05T01:03:16.859Z,5.40
2023-05-05T01:06:16.589Z,5.20
2023-05-05T01:09:08.021Z,5.30
2023-05-05T01:11:49.555Z,5.50
2023-05-05T01:14:20.529Z,4.63
2023-05-05T01:17:04.086Z,5.43
2023-05-05T01:19:33.970Z,5.10
2023-05-05T01:22:04.881Z,5.17
2023-05-05T01:24:56.550Z,5.63
2023-05-05T01:27:45.500Z,4.50
2023-05-05T01:30:39.335Z,4.93
2023-05-05T01:33:11.668Z,5.40
2023-05-05T01:35:45.997Z,5.30
2023-05-05T01:38:21.825Z,5.27
2023-05-05T01:41:04.804Z,6.20
2023-05-05T01:43:35.306Z,6.80
2023-05-05T01:46:03.490Z,7.10
2023-05-05T01:48:33.354Z,7.67
2023-05-05T01:51:05.343Z,6.77
2023-05-05T01:53:34.422Z,7.17
2023-05-05T01:56:03.037Z,6.83
2023-05-05T01:58:32.525Z,6.70
2023-05-05T02:00:59.902Z,7.03
2023-05-05T02:03:29.449Z,7.87
2023-05-05T02:05:58.789Z,6.67
2023-05-05T02:08:26.952Z,6.30
2023-05-05T02:10:55.843Z,6.77
2023-05-05T02:13:26.155Z,6.90
2023-05-05T02:15:55.010Z,7.83
2023-05-05T02:18:23.554Z,7.73
2023-05-05T02:20:50.812Z,7.17
2023-05-05T02:23:18.161Z,7.70
2023-05-05T02:25:51.100Z,5.97
2023-05-05T02:28:31.653Z,7.23
2023-05-05T02:31:00.667Z,5.80
2023-05-05T02:33:33.282Z,7.27
2023-05-05T02:36:27.840Z,6.80
2023-05-05T02:39:04.671Z,6.90
2023-05-05T02:41:39.553Z,7.23
2023-05-05T02:44:14.091Z,7.33
2023-05-05T02:46:42.834Z,6.70
2023-05-05T02:49:10.152Z,7.30
2023-05-05T02:51:39.162Z,7.53
2023-05-05T02:54:12.597Z,8.70
2023-05-05T02:56:51.824Z,7.87
2023-05-05T02:59:57.082Z,7.03
2023-05-05T03:02:45.133Z,6.93
2023-05-05T03:05:23.470Z,6.63
2023-05-05T03:08:05.549Z,6.40
2023-05-05T03:10:54.758Z,6.80
2023-05-05T03:13:25.381Z,7.27
2023-05-05T03:15:54.167Z,7.43
2023-05-05T03:18:25.800Z,6.80
2023-05-05T03:21:08.037Z,6.43
2023-05-05T03:23:37.599Z,6.77
2023-05-05T03:26:09.259Z,6.87
2023-05-05T03:28:40.711Z,6.70
2023-05-05T03:31:15.965Z,7.90
2023-05-05T03:33:43.213Z,6.33
2023-05-05T03:36:10.709Z,5.80
2023-05-05T03:38:40.197Z,5.40
2023-05-05T03:41:07.828Z,6.17
2023-05-05T03:43:35.549Z,6.13
2023-05-05T03:46:02.894Z,5.10
2023-05-05T03:48:30.274Z,5.90
2023-05-05T03:50:57.818Z,5.50
2023-05-05T03:53:27.268Z,6.73
2023-05-05T03:55:54.963Z,4.70
2023-05-05T03:58:22.291Z,5.10
2023-05-05T04:00:49.731Z,5.40
2023-05-05T04:03:19.237Z,4.90
2023-05-05T04:05:47.124Z,4.87
2023-05-05T04:08:14.467Z,4.77
2023-05-05T04:10:41.881Z,5.37
2023-05-05T04:13:09.360Z,4.73
2023-05-05T04:15:37.113Z,4.10
2023-05-05T04:18:04.347Z,4.57
2023-05-05T04:20:31.483Z,5.20
2023-05-05T04:22:58.696Z,4.30
2023-05-05T04:25:25.852Z,4.27
2023-05-05T04:27:53.150Z,4.00
2023-05-05T04:30:20.397Z,4.60
2023-05-05T04:32:47.524Z,5.70
2023-05-05T04:35:14.994Z,5.13
2023-05-05T04:37:43.200Z,5.30
2023-05-05T04:40:11.035Z,3.73
2023-05-05T04:42:45.654Z,4.40
2023-05-05T04:45:13.342Z,4.47
2023-05-05T04:47:41.053Z,4.87
2023-05-05T04:50:09.957Z,4.33
2023-05-05T04:52:37.728Z,4.63
2023-05-05T04:55:05.870Z,4.90
2023-05-05T04:57:33.839Z,5.07
2023-05-05T05:00:01.740Z,5.10
2023-05-05T05:02:29.139Z,5.70
2023-05-05T05:04:56.366Z,5.20
2023-05-05T05:07:24.282Z,5.53
2023-05-05T05:09:51.889Z,6.87
2023-05-05T05:12:19.047Z,5.40
2023-05-05T05:14:46.175Z,5.50
2023-05-05T05:17:13.550Z,5.80
2023-05-05T05:19:41.409Z,5.27
2023-05-05T05:22:09.080Z,6.23
2023-05-05T05:24:39.301Z,5.73
2023-05-05T05:27:10.183Z,5.20
2023-05-05T05:29:39.845Z,5.00
2023-05-05T05:32:07.076Z,5.43
2023-05-05T05:34:34.714Z,5.40
2023-05-05T05:37:02.681Z,4.60
2023-05-05T05:39:29.797Z,4.23
2023-05-05T05:41:57.468Z,15.20
2023-05-05T05:44:25.272Z,9.20
2023-05-05T05:46:52.396Z,6.57
2023-05-05T05:49:19.616Z,4.70
2023-05-05T05:51:47.222Z,5.50
2023-05-05T05:54:14.399Z,7.50
2023-05-05T05:56:42.970Z,4.70
2023-05-05T05:59:10.732Z,13.83
2023-05-05T06:01:40.493Z,5.90
2023-05-05T06:04:07.973Z,11.43
2023-05-05T06:06:36.016Z,5.33
2023-05-05T06:09:03.313Z,5.40
2023-05-05T06:11:33.269Z,6.70
2023-05-05T06:14:00.674Z,5.00
2023-05-05T06:16:27.936Z,4.30
2023-05-05T06:18:56.011Z,4.80
2023-05-05T06:21:23.488Z,5.20
2023-05-05T06:23:51.741Z,4.93
2023-05-05T06:26:19.242Z,4.20
2023-05-05T06:28:46.370Z,4.63
2023-05-05T06:31:14.389Z,4.30
2023-05-05T06:33:41.557Z,4.80
2023-05-05T06:36:09.073Z,4.33
2023-05-05T06:38:36.298Z,4.60
2023-05-05T06:41:03.740Z,4.40
2023-05-05T06:43:31.227Z,4.77
2023-05-05T06:46:01.357Z,4.37
2023-05-05T06:48:28.528Z,4.63
2023-05-05T06:50:56.931Z,4.07
2023-05-05T06:53:24.239Z,4.43
2023-05-05T06:55:51.801Z,4.27
2023-05-05T06:58:19.204Z,3.90
2023-05-05T07:00:46.528Z,4.13
2023-05-05T07:03:14.456Z,4.10
2023-05-05T07:05:44.311Z,6.70
2023-05-05T07:08:11.477Z,4.27
2023-05-05T07:10:38.994Z,4.40
2023-05-05T07:13:08.468Z,3.63
2023-05-05T07:15:35.907Z,5.40
2023-05-05T07:18:03.220Z,4.00
2023-05-05T07:20:30.544Z,4.37
2023-05-05T07:22:57.580Z,4.07
2023-05-05T07:25:24.602Z,4.23
2023-05-05T07:27:51.757Z,4.00
2023-05-05T07:30:19.534Z,3.87
2023-05-05T07:32:47.362Z,3.93
2023-05-05T07:35:14.624Z,3.90
2023-05-05T07:37:41.635Z,3.57
2023-05-05T07:40:09.636Z,4.63
2023-05-05T07:42:36.894Z,4.07
2023-05-05T07:45:05.205Z,3.97
2023-05-05T07:47:32.775Z,4.27
2023-05-05T07:50:01.506Z,4.90
2023-05-05T07:52:44.135Z,3.50
2023-05-05T07:55:13.732Z,5.10
2023-05-05T07:57:40.987Z,3.93
2023-05-05T08:00:09.644Z,3.03
2023-05-05T08:02:40.102Z,4.17
2023-05-05T08:05:08.202Z,3.43
2023-05-05T08:07:38.243Z,4.00
2023-05-05T08:10:10.477Z,3.33
2023-05-05T08:12:38.135Z,3.17
2023-05-05T08:15:06.640Z,3.57
2023-05-05T08:17:52.005Z,4.30
2023-05-05T08:20:21.196Z,3.80
2023-05-05T08:22:48.317Z,3.37
2023-05-05T08:25:15.477Z,3.40
2023-05-05T08:27:46.009Z,3.23
2023-05-05T08:30:13.690Z,4.07
2023-05-05T08:32:40.875Z,4.60
2023-05-05T08:35:09.045Z,4.33
2023-05-05T08:37:36.520Z,3.40
2023-05-05T08:40:04.687Z,3.50
2023-05-05T08:42:36.967Z,2.80
2023-05-05T08:45:10.420Z,3.40
2023-05-05T08:47:39.332Z,3.30
2023-05-05T08:50:10.437Z,3.67
2023-05-05T08:52:49.196Z,3.20
2023-05-05T08:55:28.138Z,3.77
2023-05-05T08:57:57.928Z,3.10
2023-05-05T09:00:27.256Z,2.80
2023-05-05T09:02:59.586Z,3.53
2023-05-05T09:05:27.549Z,2.50
2023-05-05T09:07:54.752Z,3.73
2023-05-05T09:10:21.984Z,3.20
2023-05-05T09:12:51.212Z,3.37
2023-05-05T09:15:18.602Z,2.77
2023-05-05T09:17:47.038Z,3.00
2023-05-05T09:20:15.537Z,3.00
2023-05-05T09:22:46.269Z,2.30
2023-05-05T09:25:15.683Z,4.13
2023-05-05T09:27:49.263Z,2.67
2023-05-05T09:30:26.178Z,2.60
2023-05-05T09:32:55.295Z,2.40
2023-05-05T09:35:23.530Z,2.37
2023-05-05T09:37:50.888Z,1.90
2023-05-05T09:40:19.277Z,2.17
2023-05-05T09:42:47.359Z,2.70
2023-05-05T09:45:20.595Z,2.70
2023-05-05T09:47:48.888Z,2.20
2023-05-05T09:50:20.283Z,2.13
2023-05-05T09:53:02.417Z,2.20
2023-05-05T09:55:33.081Z,2.67
2023-05-05T09:58:30.906Z,2.47
2023-05-05T10:00:59.130Z,2.40
2023-05-05T10:03:26.646Z,2.30
2023-05-05T10:05:56.800Z,2.37
2023-05-05T10:08:31.584Z,2.33
2023-05-05T10:11:07.524Z,2.37
2023-05-05T10:13:42.074Z,2.60
2023-05-05T10:16:11.870Z,2.80
2023-05-05T10:18:46.550Z,2.47
2023-05-05T10:21:17.781Z,2.33
2023-05-05T10:23:50.329Z,2.10
2023-05-05T10:26:19.833Z,1.90
2023-05-05T10:28:57.080Z,2.07
2023-05-05T10:31:48.286Z,1.60
2023-05-05T10:34:27.292Z,1.60
2023-05-05T10:36:57.360Z,1.87
2023-05-05T10:39:25.155Z,2.00
2023-05-05T10:41:53.573Z,1.87
2023-05-05T10:44:22.604Z,1.53
2023-05-05T10:46:50.353Z,1.70
2023-05-05T10:49:54.707Z,1.90
2023-05-05T10:52:33.819Z,2.17
2023-05-05T10:55:19.476Z,1.93
2023-05-05T10:57:53.092Z,2.07
2023-05-05T11:00:38.600Z,1.80
2023-05-05T11:03:17.685Z,1.67
2023-05-05T11:06:03.786Z,1.90
2023-05-05T11:08:32.717Z,1.50
2023-05-05T11:11:01.156Z,1.77
2023-05-05T11:13:29.264Z,1.90
2023-05-05T11:15:57.845Z,2.07
2023-05-05T11:18:38.557Z,2.17
2023-05-05T11:21:17.554Z,1.90
2023-05-05T11:23:53.080Z,2.17
2023-05-05T11:26:51.261Z,1.80
2023-05-05T11:29:18.363Z,2.13
2023-05-05T11:31:47.902Z,1.63
2023-05-05T11:34:28.470Z,2.20
2023-05-05T11:37:14.051Z,1.50
2023-05-05T11:40:02.679Z,1.90
2023-05-05T11:42:30.477Z,1.63
2023-05-05T11:44:57.801Z,2.30
2023-05-05T11:47:28.618Z,2.10
2023-05-05T11:49:56.540Z,1.90
2023-05-05T11:52:26.224Z,2.13
2023-05-05T11:54:54.527Z,1.73
2023-05-05T11:57:30.025Z,1.80
2023-05-05T11:59:59.644Z,1.40
2023-05-05T12:02:28.366Z,1.50
2023-05-05T12:04:57.170Z,1.23
2023-05-05T12:07:30.952Z,1.60
2023-05-05T12:09:58.628Z,1.80
2023-05-05T12:12:40.237Z,1.50
2023-05-05T12:15:09.720Z,1.50
2023-05-05T12:17:46.079Z,2.47
2023-05-05T12:20:14.246Z,1.50
2023-05-05T12:22:41.697Z,2.30
2023-05-05T12:25:09.604Z,2.47
2023-05-05T12:27:36.804Z,2.20
2023-05-05T12:30:16.695Z,1.80
2023-05-05T12:32:45.216Z,2.10
2023-05-05T12:35:12.970Z,1.93
2023-05-05T12:37:40.478Z,1.90
2023-05-05T12:40:09.033Z,1.80
2023-05-05T12:42:40.323Z,2.07
2023-05-05T12:45:17.489Z,1.87
2023-05-05T12:47:44.891Z,2.47
2023-05-05T12:50:12.261Z,1.47
2023-05-05T12:52:46.337Z,1.60
2023-05-05T12:55:13.568Z,1.60
2023-05-05T12:58:04.826Z,1.43
2023-05-05T13:00:32.799Z,1.57
2023-05-05T13:03:00.289Z,1.40
2023-05-05T13:05:36.620Z,1.50
2023-05-05T13:08:04.749Z,1.87
2023-05-05T13:10:32.412Z,1.20
2023-05-05T13:12:59.601Z,2.07
2023-05-05T13:15:27.618Z,1.50
2023-05-05T13:18:01.854Z,1.57
2023-05-05T13:20:29.064Z,1.60
2023-05-05T13:22:56.206Z,1.77
2023-05-05T13:25:23.421Z,1.90
2023-05-05T13:27:50.532Z,1.43
2023-05-05T13:30:17.586Z,1.67
2023-05-05T13:32:44.680Z,1.37
2023-05-05T13:35:13.940Z,1.50
2023-05-05T13:37:42.701Z,1.60
2023-05-05T13:40:10.849Z,1.63
2023-05-05T13:42:37.914Z,1.90
2023-05-05T13:45:05.732Z,2.63
2023-05-05T13:47:32.872Z,2.03
2023-05-05T13:49:59.927Z,2.20
2023-05-05T13:52:27.722Z,1.77
2023-05-05T13:54:55.600Z,2.40
2023-05-05T13:57:23.328Z,1.53
2023-05-05T13:59:50.692Z,1.77
2023-05-05T14:02:17.799Z,1.63
2023-05-05T14:04:44.930Z,2.20
2023-05-05T14:07:11.946Z,2.13
2023-05-05T14:09:39.127Z,1.83
2023-05-05T14:12:06.367Z,2.03
2023-05-05T14:14:34.454Z,1.23
2023-05-05T14:17:01.669Z,1.93
2023-05-05T14:19:28.981Z,1.43
2023-05-05T14:21:56.036Z,2.20
2023-05-05T14:24:23.336Z,2.40
2023-05-05T14:26:50.485Z,1.80
2023-05-05T14:29:17.605Z,1.73
2023-05-05T14:31:44.684Z,1.90
2023-05-05T14:34:11.730Z,1.57
2023-05-05T14:36:38.830Z,1.80
2023-05-05T14:39:05.953Z,1.73
2023-05-05T14:41:32.998Z,2.13
2023-05-05T14:44:00.160Z,2.03
2023-05-05T14:46:27.522Z,2.30
2023-05-05T14:48:54.642Z,1.77
2023-05-05T14:51:21.729Z,2.00
2023-05-05T14:53:48.780Z,1.80
2023-05-05T14:56:16.170Z,2.20
2023-05-05T14:58:43.894Z,1.90
2023-05-05T15:01:11.054Z,1.43
2023-05-05T15:03:38.301Z,2.10
2023-05-05T15:06:05.614Z,1.97
2023-05-05T15:08:32.768Z,1.80
2023-05-05T15:10:59.877Z,1.97
2023-05-05T15:13:27.158Z,2.70
2023-05-05T15:15:54.275Z,2.07
2023-05-05T15:18:21.420Z,2.70
2023-05-05T15:20:48.525Z,2.70
2023-05-05T15:23:16.114Z,2.63
2023-05-05T15:25:43.317Z,2.40
2023-05-05T15:28:10.350Z,2.87
2023-05-05T15:30:37.443Z,1.90
2023-05-05T15:33:04.842Z,1.60
2023-05-05T15:35:32.260Z,2.37
2023-05-05T15:37:59.339Z,1.90
2023-05-05T15:40:26.477Z,3.07
2023-05-05T15:42:53.715Z,1.87
2023-05-05T15:45:20.866Z,3.10
2023-05-05T15:47:48.129Z,2.70
2023-05-05T15:50:16.207Z,1.97
2023-05-05T15:52:43.452Z,2.40
2023-05-05T15:55:11.016Z,2.30
2023-05-05T15:57:41.438Z,2.03
2023-05-05T16:00:09.540Z,3.23
2023-05-05T16:02:37.655Z,4.70
2023-05-05T16:05:05.593Z,2.80
2023-05-05T16:07:32.673Z,3.00
2023-05-05T16:09:59.703Z,2.90
2023-05-05T16:12:27.028Z,2.20
2023-05-05T16:14:54.127Z,2.23
2023-05-05T16:17:22.368Z,2.47
2023-05-05T16:19:50.197Z,2.17
2023-05-05T16:22:17.483Z,3.37
2023-05-05T16:24:44.568Z,3.20
2023-05-05T16:27:11.742Z,2.70
2023-05-05T16:29:38.993Z,1.80
2023-05-05T16:32:06.290Z,2.30
2023-05-05T16:34:33.477Z,1.77
2023-05-05T16:37:00.830Z,1.90
2023-05-05T16:39:27.860Z,2.57
2023-05-05T16:41:55.059Z,2.27
2023-05-05T16:44:22.240Z,2.00
2023-05-05T16:46:49.375Z,1.80
2023-05-05T16:49:16.477Z,2.30
2023-05-05T16:51:43.628Z,2.20
2023-05-05T16:54:10.779Z,1.97
2023-05-05T16:56:37.821Z,3.30
2023-05-05T16:59:04.874Z,2.50
2023-05-05T17:01:32.253Z,2.70
2023-05-05T17:04:02.489Z,2.77
2023-05-05T17:06:33.165Z,2.40
2023-05-05T17:09:00.282Z,2.40
2023-05-05T17:11:27.488Z,4.10
2023-05-05T17:13:54.521Z,8.80
2023-05-05T17:16:21.652Z,2.93
2023-05-05T17:18:48.820Z,1.77
2023-05-05T17:21:15.934Z,2.40
2023-05-05T17:23:42.957Z,2.13
2023-05-05T17:26:10.053Z,2.90
2023-05-05T17:28:37.488Z,2.30
2023-05-05T17:31:04.567Z,2.80
2023-05-05T17:33:31.716Z,2.93
2023-05-05T17:35:58.818Z,3.17
2023-05-05T17:38:25.931Z,3.73
2023-05-05T17:40:53.088Z,2.97
2023-05-05T17:43:20.134Z,2.30
2023-05-05T17:45:47.197Z,3.47
2023-05-05T17:48:14.281Z,2.80
2023-05-05T17:50:43.119Z,4.00
2023-05-05T17:53:10.772Z,3.13
2023-05-05T17:55:38.002Z,3.37
2023-05-05T17:58:05.097Z,3.47
2023-05-05T18:00:32.207Z,3.83
2023-05-05T18:03:01.001Z,2.50
2023-05-05T18:05:28.383Z,3.80
2023-05-05T18:07:55.526Z,4.30
2023-05-05T18:10:23.309Z,3.50
2023-05-05T18:12:50.377Z,4.07
2023-05-05T18:15:17.643Z,4.40
2023-05-05T18:17:44.945Z,5.23
2023-05-05T18:20:12.287Z,4.00
2023-05-05T18:22:39.752Z,4.20
2023-05-05T18:25:08.361Z,6.10
2023-05-05T18:27:36.082Z,4.00
2023-05-05T18:30:04.861Z,2.30
2023-05-05T18:32:32.639Z,3.20
2023-05-05T18:34:59.755Z,3.40
2023-05-05T18:37:27.888Z,4.10
2023-05-05T18:39:55.135Z,3.20
2023-05-05T18:42:22.605Z,4.63
2023-05-05T18:44:49.716Z,4.07
2023-05-05T18:47:16.791Z,3.40
2023-05-05T18:49:45.368Z,3.83
2023-05-05T18:52:12.687Z,5.53
2023-05-05T18:54:39.787Z,3.60
2023-05-05T18:57:07.066Z,3.23
2023-05-05T18:59:35.460Z,4.17
2023-05-05T19:02:02.895Z,4.00
2023-05-05T19:04:31.307Z,3.70
2023-05-05T19:06:59.993Z,3.50
2023-05-05T19:09:27.607Z,4.40
2023-05-05T19:11:54.875Z,3.30
2023-05-05T19:14:23.050Z,3.60
2023-05-05T19:16:50.199Z,4.20
2023-05-05T19:19:17.467Z,4.47
2023-05-05T19:21:44.692Z,8.07
2023-05-05T19:24:11.844Z,4.57
2023-05-05T19:26:39.102Z,4.13
2023-05-05T19:29:06.433Z,3.73
2023-05-05T19:31:33.592Z,3.30
2023-05-05T19:34:04.003Z,3.77
2023-05-05T19:36:32.413Z,4.00
2023-05-05T19:39:04.773Z,3.57
2023-05-05T19:41:32.678Z,3.30
2023-05-05T19:44:00.190Z,5.23
2023-05-05T19:46:27.364Z,4.30
2023-05-05T19:48:54.493Z,3.90
2023-05-05T19:51:21.767Z,4.40
2023-05-05T19:53:48.874Z,4.13
2023-05-05T19:56:17.026Z,5.10
2023-05-05T19:59:01.366Z,4.97
2023-05-05T20:01:29.336Z,6.70
2023-05-05T20:03:57.431Z,4.70
2023-05-05T20:06:24.933Z,5.20
2023-05-05T20:08:52.449Z,4.13
2023-05-05T20:11:21.161Z,5.33
2023-05-05T20:13:49.989Z,3.83
2023-05-05T20:16:17.617Z,4.73
2023-05-05T20:18:44.940Z,5.37
2023-05-05T20:21:12.174Z,5.70
2023-05-05T20:23:39.559Z,4.47
2023-05-05T20:26:07.798Z,4.83
2023-05-05T20:28:45.122Z,5.13
2023-05-05T20:31:14.854Z,5.30
2023-05-05T20:33:44.731Z,4.70
2023-05-05T20:36:12.046Z,4.50
2023-05-05T20:38:39.103Z,4.53
2023-05-05T20:41:06.404Z,4.23
2023-05-05T20:43:34.018Z,5.30
2023-05-05T20:46:01.163Z,5.43
2023-05-05T20:48:29.031Z,4.60
2023-05-05T20:50:56.204Z,5.50
2023-05-05T20:53:25.723Z,4.43
2023-05-05T20:55:52.838Z,5.03
2023-05-05T20:58:20.016Z,5.13
2023-05-05T21:00:47.342Z,4.20
2023-05-05T21:03:14.630Z,4.77
2023-05-05T21:05:42.053Z,4.03
2023-05-05T21:08:09.165Z,4.43
2023-05-05T21:10:36.726Z,4.20
2023-05-05T21:13:04.117Z,4.17
2023-05-05T21:15:31.986Z,4.33
2023-05-05T21:17:59.234Z,3.83
2023-05-05T21:20:26.755Z,6.07
2023-05-05T21:22:53.936Z,5.13
2023-05-05T21:25:21.957Z,4.57
2023-05-05T21:27:49.540Z,4.93
2023-05-05T21:30:17.294Z,4.83
2023-05-05T21:32:44.902Z,7.83
2023-05-05T21:35:12.260Z,6.00
2023-05-05T21:37:40.130Z,6.20
2023-05-05T21:40:13.643Z,6.43
2023-05-05T21:42:42.661Z,4.77
2023-05-05T21:45:11.715Z,5.33
2023-05-05T21:47:39.045Z,5.63
2023-05-05T21:50:07.470Z,6.10
2023-05-05T21:52:34.795Z,5.67
2023-05-05T21:55:02.159Z,4.80
2023-05-05T21:57:29.335Z,4.97
2023-05-05T21:59:56.409Z,5.37
2023-05-05T22:02:23.710Z,5.43
2023-05-05T22:04:54.110Z,4.77
2023-05-05T22:07:21.235Z,4.67
2023-05-05T22:09:48.429Z,5.43
2023-05-05T22:12:16.407Z,5.80
2023-05-05T22:14:43.502Z,4.93
2023-05-05T22:17:11.689Z,4.77
2023-05-05T22:19:38.749Z,4.80
2023-05-05T22:22:05.789Z,4.67
2023-05-05T22:24:32.958Z,4.33
2023-05-05T22:27:00.137Z,3.90
2023-05-05T22:29:27.524Z,4.30
2023-05-05T22:31:54.700Z,3.70
2023-05-05T22:34:21.959Z,4.67
2023-05-05T22:36:49.768Z,4.47
2023-05-05T22:39:18.586Z,4.77
2023-05-05T22:41:46.357Z,4.37
2023-05-05T22:44:13.540Z,4.07
2023-05-05T22:46:40.946Z,4.37
2023-05-05T22:49:08.808Z,4.10
2023-05-05T22:51:35.998Z,3.60
2023-05-05T22:54:03.361Z,4.97
2023-05-05T22:56:30.528Z,5.27
2023-05-05T22:58:57.665Z,4.03
2023-05-05T23:01:24.780Z,4.00
2023-05-05T23:03:52.024Z,4.63
2023-05-05T23:06:19.150Z,4.57
2023-05-05T23:08:46.420Z,5.60
2023-05-05T23:11:13.505Z,5.93
2023-05-05T23:13:40.762Z,5.80
2023-05-05T23:16:08.361Z,6.80
2023-05-05T23:18:36.725Z,6.00
2023-05-05T23:21:04.077Z,6.70
2023-05-05T23:23:31.883Z,6.90
2023-05-05T23:25:58.958Z,6.00
2023-05-05T23:28:26.064Z,6.53
2023-05-05T23:30:53.177Z,6.03
2023-05-05T23:33:20.446Z,5.33
2023-05-05T23:35:47.855Z,6.07
2023-05-05T23:38:14.996Z,7.17
2023-05-05T23:40:42.328Z,7.87
2023-05-05T23:43:09.441Z,6.50
2023-05-05T23:45:36.484Z,7.33
2023-05-05T23:48:03.892Z,8.00
2023-05-05T23:50:31.080Z,8.07
2023-05-05T23:52:58.109Z,8.30
2023-05-05T23:55:25.296Z,7.00
2023-05-05T23:57:53.158Z,7.80
